createdAt,value
2018-05-16T00:00:07.362Z,5.40
2018-05-16T00:02:34.220Z,4.60
2018-05-16T00:05:00.917Z,2.20
2018-05-16T00:07:27.557Z,3.80
2018-05-16T00:09:54.319Z,3.83
2018-05-16T00:12:21.059Z,3.17
2018-05-16T00:14:47.674Z,3.60
2018-05-16T00:17:38.090Z,4.67
2018-05-16T00:20:20.271Z,2.10
2018-05-16T00:22:47.152Z,4.47
2018-05-16T00:25:13.759Z,1.63
2018-05-16T00:27:40.490Z,3.03
2018-05-16T00:30:07.250Z,2.83
2018-05-16T00:32:34.098Z,3.23
2018-05-16T00:35:00.731Z,3.33
2018-05-16T00:37:27.373Z,2.93
2018-05-16T00:39:54.031Z,2.87
2018-05-16T00:42:20.746Z,3.40
2018-05-16T00:44:47.391Z,3.33
2018-05-16T00:47:14.227Z,3.10
2018-05-16T00:49:41.071Z,2.77
2018-05-16T00:52:07.810Z,3.43
2018-05-16T00:54:34.552Z,1.67
2018-05-16T00:57:02.920Z,1.33
2018-05-16T00:59:29.665Z,1.20
2018-05-16T01:01:56.291Z,3.27
2018-05-16T01:04:23.041Z,3.37
2018-05-16T01:06:49.888Z,4.83
2018-05-16T01:09:16.520Z,3.20
2018-05-16T01:11:43.265Z,2.53
2018-05-16T01:14:10.005Z,1.57
2018-05-16T01:16:36.846Z,2.33
2018-05-16T01:19:03.584Z,1.97
2018-05-16T01:21:30.430Z,4.17
2018-05-16T01:23:57.162Z,3.90
2018-05-16T01:26:23.905Z,3.20
2018-05-16T01:28:50.744Z,3.77
2018-05-16T01:31:17.482Z,2.07
2018-05-16T01:33:44.228Z,2.80
2018-05-16T01:36:10.811Z,3.00
2018-05-16T01:38:38.295Z,2.43
2018-05-16T01:41:04.938Z,1.97
2018-05-16T01:43:31.696Z,1.97
2018-05-16T01:45:58.331Z,2.80
2018-05-16T01:48:25.071Z,1.37
2018-05-16T01:50:51.924Z,2.50
2018-05-16T01:53:18.628Z,1.83
2018-05-16T01:55:45.218Z,2.50
2018-05-16T01:58:12.580Z,1.90
2018-05-16T02:00:40.282Z,2.63
2018-05-16T02:03:06.942Z,2.73
2018-05-16T02:05:33.540Z,4.67
2018-05-16T02:08:00.325Z,5.53
2018-05-16T02:10:26.956Z,3.40
2018-05-16T02:12:53.806Z,2.80
2018-05-16T02:15:20.537Z,1.73
2018-05-16T02:17:47.278Z,3.60
2018-05-16T02:20:14.019Z,2.00
2018-05-16T02:22:40.654Z,1.77
2018-05-16T02:25:07.378Z,3.50
2018-05-16T02:27:34.136Z,2.87
2018-05-16T02:30:00.957Z,2.63
2018-05-16T02:32:27.640Z,2.23
2018-05-16T02:34:54.326Z,4.10
2018-05-16T02:37:20.986Z,3.33
2018-05-16T02:39:48.454Z,2.90
2018-05-16T02:42:15.188Z,4.57
2018-05-16T02:44:41.902Z,2.30
2018-05-16T02:47:08.565Z,2.07
2018-05-16T02:49:35.407Z,1.73
2018-05-16T02:52:02.114Z,3.97
2018-05-16T02:54:28.855Z,1.93
2018-05-16T02:56:55.525Z,3.10
2018-05-16T02:59:22.119Z,2.93
2018-05-16T03:01:49.728Z,3.67
2018-05-16T03:04:16.433Z,1.47
2018-05-16T03:06:43.175Z,2.17
2018-05-16T03:09:09.816Z,2.70
2018-05-16T03:11:36.581Z,1.33
2018-05-16T03:14:03.285Z,4.87
2018-05-16T03:16:29.924Z,2.70
2018-05-16T03:18:56.694Z,3.10
2018-05-16T03:21:23.329Z,1.80
2018-05-16T03:23:49.964Z,2.93
2018-05-16T03:26:16.577Z,2.70
2018-05-16T03:28:43.345Z,5.60
2018-05-16T03:31:11.008Z,3.53
2018-05-16T03:33:37.743Z,2.60
2018-05-16T03:36:04.485Z,1.20
2018-05-16T03:38:31.106Z,2.60
2018-05-16T03:40:57.758Z,6.37
2018-05-16T03:43:24.474Z,3.20
2018-05-16T03:45:51.111Z,2.80
2018-05-16T03:48:17.876Z,1.37
2018-05-16T03:50:44.592Z,1.63
2018-05-16T03:53:18.386Z,3.07
2018-05-16T03:55:45.041Z,2.27
2018-05-16T03:58:23.778Z,2.60
2018-05-16T04:01:02.706Z,4.73
2018-05-16T04:03:42.040Z,3.50
2018-05-16T04:06:08.780Z,4.13
2018-05-16T04:08:35.518Z,6.53
2018-05-16T04:11:02.462Z,8.17
2018-05-16T04:13:29.384Z,6.90
2018-05-16T04:15:56.693Z,7.60
2018-05-16T04:18:23.404Z,10.60
2018-05-16T04:20:50.008Z,6.80
2018-05-16T04:23:16.876Z,5.70
2018-05-16T04:25:43.619Z,6.10
2018-05-16T04:28:10.193Z,7.80
2018-05-16T04:30:37.709Z,9.50
2018-05-16T04:33:04.307Z,6.43
2018-05-16T04:35:31.022Z,6.23
2018-05-16T04:37:57.723Z,5.83
2018-05-16T04:40:24.643Z,4.73
2018-05-16T04:42:51.307Z,5.67
2018-05-16T04:45:17.942Z,4.20
2018-05-16T04:47:44.682Z,6.13
2018-05-16T04:50:11.397Z,4.53
2018-05-16T04:52:38.037Z,3.47
2018-05-16T04:55:04.668Z,4.43
2018-05-16T04:57:31.287Z,5.83
2018-05-16T04:59:58.665Z,6.27
2018-05-16T05:02:25.397Z,7.90
2018-05-16T05:04:52.474Z,5.30
2018-05-16T05:07:19.318Z,6.33
2018-05-16T05:09:45.948Z,7.00
2018-05-16T05:12:12.691Z,8.17
2018-05-16T05:14:39.329Z,3.93
2018-05-16T05:17:05.930Z,5.40
2018-05-16T05:19:32.591Z,6.80
2018-05-16T05:21:59.242Z,5.57
2018-05-16T05:24:25.984Z,10.73
2018-05-16T05:26:52.700Z,7.97
2018-05-16T05:29:19.362Z,10.40
2018-05-16T05:31:46.203Z,8.53
2018-05-16T05:34:12.837Z,8.57
2018-05-16T05:36:39.580Z,3.37
2018-05-16T05:39:06.218Z,8.07
2018-05-16T05:41:33.033Z,7.10
2018-05-16T05:43:59.911Z,3.83
2018-05-16T05:46:26.637Z,6.53
2018-05-16T05:48:53.206Z,3.73
2018-05-16T05:51:20.833Z,8.20
2018-05-16T05:53:47.475Z,3.95
2018-05-16T05:56:14.215Z,6.13
2018-05-16T05:58:41.641Z,3.40
2018-05-16T06:01:08.289Z,6.17
2018-05-16T06:03:35.045Z,6.40
2018-05-16T06:06:01.668Z,4.10
2018-05-16T06:08:28.628Z,6.07
2018-05-16T06:10:55.371Z,5.20
2018-05-16T06:13:21.956Z,3.13
2018-05-16T06:15:49.357Z,2.90
2018-05-16T06:18:16.074Z,5.87
2018-05-16T06:20:42.838Z,7.53
2018-05-16T06:23:09.451Z,4.27
2018-05-16T06:25:36.145Z,4.47
2018-05-16T06:28:02.748Z,4.33
2018-05-16T06:30:29.459Z,4.10
2018-05-16T06:32:56.040Z,2.80
2018-05-16T06:35:22.762Z,7.50
2018-05-16T06:37:49.384Z,2.57
2018-05-16T06:40:16.013Z,3.70
2018-05-16T06:42:42.572Z,3.20
2018-05-16T06:45:09.515Z,3.20
2018-05-16T06:47:36.235Z,1.33
2018-05-16T06:50:02.954Z,2.40
2018-05-16T06:52:29.531Z,2.47
2018-05-16T06:54:56.167Z,5.83
2018-05-16T06:57:22.906Z,3.83
2018-05-16T06:59:49.649Z,5.07
2018-05-16T07:02:16.277Z,3.83
2018-05-16T07:04:42.840Z,2.30
2018-05-16T07:07:09.559Z,3.13
2018-05-16T07:09:36.477Z,3.03
2018-05-16T07:12:03.142Z,5.17
2018-05-16T07:14:29.985Z,5.93
2018-05-16T07:16:56.785Z,12.23
2018-05-16T07:19:23.437Z,10.27
2018-05-16T07:21:50.099Z,5.27
2018-05-16T07:24:16.839Z,2.67
2018-05-16T07:26:43.564Z,3.50
2018-05-16T07:29:10.221Z,2.40
2018-05-16T07:31:36.828Z,4.17
2018-05-16T07:34:03.702Z,1.90
2018-05-16T07:36:30.435Z,6.33
2018-05-16T07:38:57.281Z,1.80
2018-05-16T07:41:24.018Z,2.43
2018-05-16T07:43:50.755Z,1.10
2018-05-16T07:46:17.700Z,3.43
2018-05-16T07:48:44.443Z,2.23
2018-05-16T07:51:11.284Z,2.23
2018-05-16T07:53:38.842Z,3.17
2018-05-16T07:56:05.596Z,3.87
2018-05-16T07:58:32.423Z,2.47
2018-05-16T08:00:59.266Z,1.73
2018-05-16T08:03:26.003Z,2.57
2018-05-16T08:05:52.725Z,1.00
2018-05-16T08:08:19.595Z,1.70
2018-05-16T08:10:46.632Z,2.23
2018-05-16T08:13:13.346Z,1.37
2018-05-16T08:15:40.216Z,1.80
2018-05-16T08:18:07.880Z,2.00
2018-05-16T08:20:34.617Z,1.50
2018-05-16T08:23:01.354Z,3.87
2018-05-16T08:25:28.094Z,2.43
2018-05-16T08:27:54.835Z,1.93
2018-05-16T08:30:21.575Z,4.17
2018-05-16T08:32:48.305Z,3.43
2018-05-16T08:35:15.160Z,4.50
2018-05-16T08:37:41.999Z,4.00
2018-05-16T08:40:08.948Z,1.63
2018-05-16T08:42:35.681Z,2.47
2018-05-16T08:45:02.422Z,2.87
2018-05-16T08:47:29.161Z,5.27
2018-05-16T08:49:55.874Z,3.47
2018-05-16T08:52:22.640Z,4.53
2018-05-16T08:54:49.381Z,4.97
2018-05-16T08:57:16.226Z,5.30
2018-05-16T08:59:43.075Z,3.57
2018-05-16T09:02:09.788Z,3.00
2018-05-16T09:04:36.545Z,4.20
2018-05-16T09:07:03.387Z,7.00
2018-05-16T09:09:30.102Z,2.50
2018-05-16T09:11:57.799Z,6.10
2018-05-16T09:14:24.525Z,3.60
2018-05-16T09:16:51.370Z,2.53
2018-05-16T09:19:18.108Z,3.67
2018-05-16T09:21:44.950Z,3.00
2018-05-16T09:24:11.797Z,2.50
2018-05-16T09:26:38.737Z,4.50
2018-05-16T09:29:05.398Z,3.37
2018-05-16T09:31:32.216Z,2.50
2018-05-16T09:33:58.953Z,3.50
2018-05-16T09:36:25.800Z,3.20
2018-05-16T09:38:52.640Z,3.77
2018-05-16T09:41:19.378Z,2.37
2018-05-16T09:43:46.149Z,5.17
2018-05-16T09:46:13.780Z,3.17
2018-05-16T09:48:40.520Z,3.10
2018-05-16T09:51:07.465Z,5.00
2018-05-16T09:53:34.202Z,10.23
2018-05-16T09:56:00.942Z,5.07
2018-05-16T09:58:27.690Z,4.77
2018-05-16T10:00:54.288Z,2.40
2018-05-16T10:03:21.853Z,2.50
2018-05-16T10:05:48.460Z,3.83
2018-05-16T10:08:15.879Z,3.63
2018-05-16T10:10:42.607Z,4.87
2018-05-16T10:13:09.323Z,3.03
2018-05-16T10:15:36.136Z,6.17
2018-05-16T10:18:03.544Z,4.27
2018-05-16T10:20:30.168Z,5.20
2018-05-16T10:22:56.918Z,5.73
2018-05-16T10:25:23.765Z,6.43
2018-05-16T10:27:50.503Z,3.60
2018-05-16T10:30:17.218Z,5.07
2018-05-16T10:32:43.967Z,5.37
2018-05-16T10:35:10.542Z,6.20
2018-05-16T10:37:37.256Z,5.47
2018-05-16T10:40:04.000Z,4.33
2018-05-16T10:42:30.735Z,4.87
2018-05-16T10:44:57.372Z,7.40
2018-05-16T10:47:24.112Z,4.00
2018-05-16T10:49:50.757Z,5.43
2018-05-16T10:52:17.374Z,4.20
2018-05-16T10:54:44.090Z,3.90
2018-05-16T10:57:10.684Z,1.60
2018-05-16T10:59:37.400Z,1.73
2018-05-16T11:02:04.040Z,3.77
2018-05-16T11:04:30.776Z,5.13
2018-05-16T11:06:57.390Z,3.80
2018-05-16T11:09:24.084Z,2.97
2018-05-16T11:11:50.689Z,3.23
2018-05-16T11:14:17.330Z,3.73
2018-05-16T11:16:44.274Z,5.27
2018-05-16T11:19:11.001Z,3.87
2018-05-16T11:21:37.724Z,7.80
2018-05-16T11:24:04.460Z,4.27
2018-05-16T11:26:31.101Z,6.53
2018-05-16T11:28:57.789Z,2.30
2018-05-16T11:31:24.608Z,4.57
2018-05-16T11:33:51.352Z,4.00
2018-05-16T11:36:19.421Z,2.80
2018-05-16T11:38:46.232Z,3.20
2018-05-16T11:41:12.897Z,3.07
2018-05-16T11:43:40.428Z,2.73
2018-05-16T11:46:07.014Z,5.20
2018-05-16T11:48:34.336Z,3.63
2018-05-16T11:51:00.964Z,2.72
2018-05-16T11:53:27.593Z,2.30
2018-05-16T11:56:01.297Z,4.27
2018-05-16T11:58:27.952Z,4.10
2018-05-16T12:00:54.594Z,4.93
2018-05-16T12:03:21.341Z,2.33
2018-05-16T12:05:47.967Z,9.20
2018-05-16T12:08:14.618Z,7.83
2018-05-16T12:10:41.185Z,5.80
2018-05-16T12:13:08.708Z,6.20
2018-05-16T12:15:35.446Z,8.47
2018-05-16T12:18:02.166Z,4.73
2018-05-16T12:20:29.100Z,5.20
2018-05-16T12:22:55.692Z,10.63
2018-05-16T12:25:23.198Z,9.33
2018-05-16T12:27:49.964Z,8.93
2018-05-16T12:30:16.705Z,5.63
2018-05-16T12:32:43.444Z,4.77
2018-05-16T12:35:10.162Z,7.07
2018-05-16T12:37:37.006Z,3.27
2018-05-16T12:40:03.761Z,5.27
2018-05-16T12:42:30.500Z,3.20
2018-05-16T12:44:57.247Z,3.83
2018-05-16T12:47:23.881Z,3.83
2018-05-16T12:49:50.621Z,3.63
2018-05-16T12:52:17.361Z,10.87
2018-05-16T12:54:44.001Z,6.83
2018-05-16T12:57:10.736Z,7.97
2018-05-16T12:59:37.345Z,2.60
2018-05-16T13:02:04.011Z,3.93
2018-05-16T13:04:30.750Z,6.30
2018-05-16T13:06:57.363Z,5.37
2018-05-16T13:09:24.100Z,2.43
2018-05-16T13:11:50.867Z,6.37
2018-05-16T13:14:17.456Z,4.33
2018-05-16T13:16:44.785Z,5.60
2018-05-16T13:19:11.365Z,3.97
2018-05-16T13:21:38.143Z,3.20
2018-05-16T13:24:04.744Z,9.57
2018-05-16T13:26:31.403Z,1.63
2018-05-16T13:28:58.023Z,2.13
2018-05-16T13:31:24.632Z,2.83
2018-05-16T13:33:52.105Z,4.70
2018-05-16T13:36:18.923Z,6.53
2018-05-16T13:38:45.511Z,4.10
2018-05-16T13:41:12.150Z,5.87
2018-05-16T13:43:38.745Z,4.17
2018-05-16T13:46:05.422Z,2.87
2018-05-16T13:48:32.038Z,5.83
2018-05-16T13:50:58.673Z,4.27
2018-05-16T13:53:25.365Z,2.90
2018-05-16T13:55:52.765Z,4.33
2018-05-16T13:58:19.404Z,6.07
2018-05-16T14:00:46.033Z,3.00
2018-05-16T14:03:12.609Z,4.10
2018-05-16T14:05:39.340Z,3.43
2018-05-16T14:08:05.982Z,2.03
2018-05-16T14:10:32.821Z,4.00
2018-05-16T14:12:59.457Z,2.40
2018-05-16T14:15:26.040Z,4.27
2018-05-16T14:17:53.383Z,7.50
2018-05-16T14:20:20.778Z,3.67
2018-05-16T14:22:47.414Z,3.10
2018-05-16T14:25:14.281Z,2.67
2018-05-16T14:27:40.993Z,3.90
2018-05-16T14:30:07.658Z,2.60
2018-05-16T14:32:34.294Z,3.47
2018-05-16T14:35:00.940Z,4.50
2018-05-16T14:37:27.556Z,3.80
2018-05-16T14:39:54.124Z,4.13
2018-05-16T14:42:20.826Z,2.00
2018-05-16T14:44:47.553Z,2.83
2018-05-16T14:47:14.222Z,5.90
2018-05-16T14:49:40.858Z,3.70
2018-05-16T14:52:07.600Z,4.70
2018-05-16T14:54:34.310Z,3.27
2018-05-16T14:57:01.078Z,4.27
2018-05-16T14:59:27.688Z,2.50
2018-05-16T15:01:54.254Z,4.23
2018-05-16T15:04:20.873Z,2.90
2018-05-16T15:06:47.522Z,4.60
2018-05-16T15:09:14.093Z,5.30
2018-05-16T15:11:40.798Z,8.10
2018-05-16T15:14:07.538Z,6.63
2018-05-16T15:16:34.132Z,4.83
2018-05-16T15:19:01.529Z,4.47
2018-05-16T15:21:28.375Z,5.60
2018-05-16T15:23:55.064Z,3.47
2018-05-16T15:26:22.542Z,4.47
2018-05-16T15:28:49.306Z,6.60
2018-05-16T15:31:15.881Z,4.37
2018-05-16T15:33:43.298Z,4.50
2018-05-16T15:36:09.956Z,3.20
2018-05-16T15:38:36.675Z,3.47
2018-05-16T15:41:03.288Z,3.33
2018-05-16T15:43:29.869Z,3.77
2018-05-16T15:45:56.832Z,2.07
2018-05-16T15:48:24.144Z,2.23
2018-05-16T15:50:50.987Z,3.83
2018-05-16T15:53:17.760Z,2.93
2018-05-16T15:55:44.468Z,6.57
2018-05-16T15:58:18.076Z,4.23
2018-05-16T16:00:44.655Z,5.03
2018-05-16T16:03:11.442Z,6.00
2018-05-16T16:05:38.182Z,3.80
2018-05-16T16:08:04.785Z,5.40
2018-05-16T16:10:31.447Z,6.97
2018-05-16T16:12:58.064Z,5.70
2018-05-16T16:15:24.730Z,4.23
2018-05-16T16:17:51.345Z,6.10
2018-05-16T16:20:17.957Z,4.93
2018-05-16T16:22:45.365Z,3.93
2018-05-16T16:25:12.192Z,2.80
2018-05-16T16:27:39.020Z,2.83
2018-05-16T16:30:11.141Z,5.83
2018-05-16T16:32:37.746Z,5.03
2018-05-16T16:35:04.388Z,3.23
2018-05-16T16:37:30.978Z,7.50
2018-05-16T16:39:58.581Z,5.00
2018-05-16T16:42:25.319Z,5.13
2018-05-16T16:44:52.172Z,7.10
2018-05-16T16:47:19.722Z,8.93
2018-05-16T16:49:46.466Z,4.30
2018-05-16T16:52:13.097Z,4.50
2018-05-16T16:54:39.810Z,4.27
2018-05-16T16:57:06.499Z,4.37
2018-05-16T16:59:33.189Z,7.80
2018-05-16T17:01:59.929Z,5.73
2018-05-16T17:04:26.592Z,7.00
2018-05-16T17:06:53.297Z,4.43
2018-05-16T17:09:19.969Z,3.47
2018-05-16T17:11:46.709Z,4.87
2018-05-16T17:14:13.445Z,4.57
2018-05-16T17:16:40.291Z,6.53
2018-05-16T17:19:07.002Z,6.83
2018-05-16T17:21:33.592Z,10.07
2018-05-16T17:24:00.304Z,7.23
2018-05-16T17:26:26.884Z,10.50
2018-05-16T17:28:54.394Z,7.17
2018-05-16T17:31:21.192Z,8.57
2018-05-16T17:33:47.877Z,8.37
2018-05-16T17:36:14.618Z,8.27
2018-05-16T17:38:41.333Z,6.73
2018-05-16T17:41:07.963Z,9.00
2018-05-16T17:43:34.631Z,6.40
2018-05-16T17:46:02.105Z,9.13
2018-05-16T17:48:28.732Z,9.57
2018-05-16T17:50:55.337Z,6.70
2018-05-16T17:53:21.952Z,7.50
2018-05-16T17:55:49.361Z,9.80
2018-05-16T17:58:16.093Z,7.13
2018-05-16T18:00:42.909Z,7.23
2018-05-16T18:03:09.548Z,8.40
2018-05-16T18:05:36.181Z,10.10
2018-05-16T18:08:02.942Z,6.57
2018-05-16T18:10:29.540Z,9.23
2018-05-16T18:16:22.252Z,13.47
2018-05-16T18:18:48.874Z,13.33
2018-05-16T18:21:15.525Z,12.17
2018-05-16T18:23:42.093Z,15.87
2018-05-16T18:26:08.777Z,16.50
2018-05-16T18:28:35.436Z,16.83
2018-05-16T18:31:02.998Z,16.53
2018-05-16T18:33:29.606Z,17.37
2018-05-16T18:35:56.358Z,18.07
2018-05-16T18:38:22.985Z,12.27
2018-05-16T18:40:49.880Z,15.63
2018-05-16T18:43:17.385Z,13.37
2018-05-16T18:45:44.050Z,17.43
2018-05-16T18:48:10.684Z,16.30
2018-05-16T18:50:37.533Z,10.17
2018-05-16T18:53:04.267Z,9.90
2018-05-16T18:55:31.010Z,8.83
2018-05-16T18:57:57.624Z,9.83
2018-05-16T19:00:24.234Z,9.10
2018-05-16T19:02:51.613Z,9.20
2018-05-16T19:05:18.992Z,15.23
2018-05-16T19:07:45.641Z,13.20
2018-05-16T19:10:12.367Z,10.70
2018-05-16T19:12:39.109Z,12.37
2018-05-16T19:15:05.821Z,9.40
2018-05-16T19:17:33.462Z,7.87
2018-05-16T19:20:00.814Z,10.13
2018-05-16T19:22:28.230Z,10.10
2018-05-16T19:24:54.961Z,10.83
2018-05-16T19:27:21.697Z,9.83
2018-05-16T19:29:48.411Z,9.80
2018-05-16T19:32:15.073Z,11.10
2018-05-16T19:34:41.991Z,8.50
2018-05-16T19:37:08.550Z,13.23
2018-05-16T19:39:35.172Z,12.80
2018-05-16T19:42:02.645Z,12.03
2018-05-16T19:44:30.696Z,10.43
2018-05-16T19:46:58.793Z,10.47
2018-05-16T19:49:25.732Z,11.30
2018-05-16T19:51:52.470Z,11.37
2018-05-16T19:54:19.185Z,12.83
2018-05-16T19:56:45.921Z,7.90
2018-05-16T19:59:12.585Z,11.70
2018-05-16T20:01:39.204Z,9.17
2018-05-16T20:04:05.865Z,6.77
2018-05-16T20:06:32.603Z,9.40
2018-05-16T20:08:59.244Z,6.47
2018-05-16T20:11:25.980Z,5.63
2018-05-16T20:13:52.692Z,6.57
2018-05-16T20:16:19.251Z,5.07
2018-05-16T20:18:46.000Z,6.90
2018-05-16T20:21:12.705Z,8.90
2018-05-16T20:23:39.470Z,7.20
2018-05-16T20:26:06.194Z,7.90
2018-05-16T20:28:32.849Z,6.07
2018-05-16T20:30:59.555Z,4.80
2018-05-16T20:33:26.431Z,7.50
2018-05-16T20:35:53.274Z,6.47
2018-05-16T20:38:19.985Z,10.77
2018-05-16T20:40:46.652Z,7.77
2018-05-16T20:43:13.248Z,8.90
2018-05-16T20:45:39.921Z,5.10
2018-05-16T20:48:06.515Z,7.00
2018-05-16T20:50:33.194Z,7.07
2018-05-16T20:52:59.939Z,11.43
2018-05-16T20:55:26.658Z,8.40
2018-05-16T20:57:53.399Z,7.83
2018-05-16T21:00:20.157Z,6.57
2018-05-16T21:02:46.875Z,7.60
2018-05-16T21:05:13.596Z,5.00
2018-05-16T21:07:40.588Z,6.87
2018-05-16T21:10:07.293Z,4.70
2018-05-16T21:12:33.884Z,6.07
2018-05-16T21:15:00.592Z,4.30
2018-05-16T21:17:27.192Z,10.63
2018-05-16T21:19:53.820Z,7.23
2018-05-16T21:22:21.206Z,4.77
2018-05-16T21:24:47.856Z,5.33
2018-05-16T21:27:14.600Z,7.37
2018-05-16T21:29:41.336Z,3.57
2018-05-16T21:32:08.079Z,4.50
2018-05-16T21:34:34.792Z,12.03
2018-05-16T21:37:08.727Z,5.80
2018-05-16T21:39:35.670Z,4.87
2018-05-16T21:42:02.307Z,8.37
2018-05-16T21:44:29.049Z,4.27
2018-05-16T21:46:55.678Z,5.67
2018-05-16T21:49:22.297Z,5.13
2018-05-16T21:51:48.961Z,5.77
2018-05-16T21:54:15.579Z,4.97
2018-05-16T21:56:42.297Z,7.63
2018-05-16T21:59:09.691Z,5.67
2018-05-16T22:01:36.333Z,5.47
2018-05-16T22:04:03.099Z,7.90
2018-05-16T22:06:29.708Z,7.43
2018-05-16T22:08:56.413Z,5.93
2018-05-16T22:11:23.186Z,4.90
2018-05-16T22:13:49.791Z,7.53
2018-05-16T22:16:16.381Z,6.80
2018-05-16T22:18:43.070Z,5.60
2018-05-16T22:21:09.670Z,6.80
2018-05-16T22:23:37.044Z,5.40
2018-05-16T22:26:04.421Z,7.63
2018-05-16T22:28:31.182Z,7.17
2018-05-16T22:31:03.801Z,5.37
2018-05-16T22:33:37.358Z,5.70
2018-05-16T22:36:09.913Z,4.90
2018-05-16T22:38:42.815Z,7.37
2018-05-16T22:41:15.599Z,8.13
2018-05-16T22:43:44.488Z,3.63
2018-05-16T22:46:11.332Z,5.00
2018-05-16T22:48:38.072Z,4.27
2018-05-16T22:51:04.681Z,6.30
2018-05-16T22:53:31.550Z,7.70
2018-05-16T22:55:58.156Z,5.67
2018-05-16T22:58:24.822Z,4.03
2018-05-16T23:00:51.545Z,5.73
2018-05-16T23:03:18.200Z,3.30
2018-05-16T23:05:44.940Z,4.23
2018-05-16T23:08:11.580Z,4.37
2018-05-16T23:10:38.213Z,3.97
2018-05-16T23:13:04.927Z,4.73
2018-05-16T23:15:31.590Z,6.30
2018-05-16T23:17:58.335Z,9.77
2018-05-16T23:20:24.945Z,3.53
2018-05-16T23:22:51.572Z,3.83
2018-05-16T23:25:18.241Z,4.97
2018-05-16T23:27:44.882Z,5.27
2018-05-16T23:30:11.588Z,6.70
2018-05-16T23:32:38.344Z,4.60
2018-05-16T23:35:05.000Z,5.93
2018-05-16T23:37:31.579Z,6.07
2018-05-16T23:39:58.981Z,4.80
2018-05-16T23:42:25.605Z,6.43
2018-05-16T23:44:52.669Z,3.47
2018-05-16T23:47:19.411Z,5.33
2018-05-16T23:49:46.127Z,4.43
2018-05-16T23:52:12.790Z,6.67
2018-05-16T23:54:39.391Z,6.47
2018-05-16T23:57:06.106Z,4.53
2018-05-16T23:59:33.521Z,4.23
